Time;durP1;ratioP1;P1;durP2;ratioP2;P2;SDS_P1;SDS_P2;PMS_P1;PMS_P2;Temp;Humidity;BMP_temperature;BMP_pressure;BME280_temperature;BME280_humidity;BME280_pressure;Samples;Min_cycle;Max_cycle;Signal;HPM_P1;HPM_P2
2021/05/10 00:02:00;;;;;;;7.57;5.22;;;;;;;9.13;61.09;96254.25;5041393;28;20025;-92
2021/05/10 00:04:26;;;;;;;7.95;6.50;;;;;;;8.78;61.82;96240.19;5041251;28;20020;-92
2021/05/10 00:06:51;;;;;;;11.73;8.77;;;;;;;8.64;61.47;96211.00;5057895;28;20060;-92
2021/05/10 00:09:16;;;;;;;8.80;7.82;;;;;;;9.28;60.52;96256.38;5041136;28;20111;-92
2021/05/10 00:11:42;;;;;;;8.88;7.85;;;;;;;8.82;59.82;96226.50;5041243;28;20021;-92
2021/05/10 00:14:08;;;;;;;10.40;8.38;;;;;;;9.00;62.04;96274.53;5057770;28;20027;-92
2021/05/10 00:16:33;;;;;;;9.52;8.23;;;;;;;8.50;62.56;96236.66;5040792;28;20070;-92
2021/05/10 00:19:00;;;;;;;6.82;5.55;;;;;;;8.87;62.56;96294.38;5041171;28;20127;-92
2021/05/10 00:21:25;;;;;;;6.93;4.78;;;;;;;8.78;61.20;96269.97;5039963;28;20040;-92
2021/05/10 00:23:51;;;;;;;7.70;4.82;;;;;;;8.55;62.39;96244.19;5040965;28;20029;-93
2021/05/10 00:26:16;;;;;;;8.40;4.97;;;;;;;8.89;61.62;96273.03;5041062;28;20016;-91
2021/05/10 00:28:42;;;;;;;7.40;4.88;;;;;;;8.69;61.07;96245.59;5040717;28;20119;-92
2021/05/10 00:31:07;;;;;;;8.18;4.45;;;;;;;8.67;61.70;96242.56;5040820;28;20083;-92
2021/05/10 00:33:33;;;;;;;8.38;5.00;;;;;;;8.54;62.14;96239.22;5040860;28;20116;-92
2021/05/10 00:35:58;;;;;;;5.75;4.50;;;;;;;8.64;62.28;96243.47;5040608;28;20032;-92
2021/05/10 00:38:24;;;;;;;7.65;4.65;;;;;;;8.97;60.64;96295.16;5040753;28;20440;-92
2021/05/10 00:40:49;;;;;;;8.02;5.10;;;;;;;8.36;61.03;96210.13;5040383;28;20029;-91
2021/05/10 00:43:15;;;;;;;7.38;4.40;;;;;;;8.30;61.58;96245.13;5040599;28;20020;-91
2021/05/10 00:45:40;;;;;;;7.57;4.55;;;;;;;8.49;64.56;96253.34;5040483;28;20031;-92
2021/05/10 00:48:06;;;;;;;7.90;5.00;;;;;;;8.53;62.57;96233.06;5057179;28;20024;-92
2021/05/10 00:50:31;;;;;;;6.40;5.20;;;;;;;8.39;62.48;96249.84;5040268;28;20035;-91
2021/05/10 00:52:57;;;;;;;10.27;5.90;;;;;;;8.45;63.54;96236.50;5040458;28;20392;-92
2021/05/10 00:55:22;;;;;;;8.30;5.28;;;;;;;8.48;63.49;96225.53;5040472;28;20120;-92
2021/05/10 00:58:03;;;;;;;6.88;5.40;;;;;;;8.25;62.93;96207.06;5040125;28;20064;-93
2021/05/10 01:00:35;;;;;;;8.65;4.70;;;;;;;8.17;63.10;96206.59;5040523;28;20025;-93
2021/05/10 01:03:01;;;;;;;6.93;4.38;;;;;;;8.72;61.12;96246.66;5056792;28;20040;-92
2021/05/10 01:05:26;;;;;;;8.23;4.45;;;;;;;8.24;61.72;96192.03;5040137;28;20037;-92
2021/05/10 01:07:52;;;;;;;7.60;4.20;;;;;;;8.69;61.58;96263.81;5040137;28;20029;-93
2021/05/10 01:10:20;;;;;;;6.43;4.43;;;;;;;8.60;60.54;96230.06;5040050;28;20025;-92
2021/05/10 01:12:46;;;;;;;6.82;3.95;;;;;;;8.85;60.51;96315.75;5056726;28;20033;-92
2021/05/10 01:15:14;;;;;;;6.55;4.22;;;;;;;8.48;61.16;96219.38;5040129;28;20115;-92
2021/05/10 01:17:41;;;;;;;5.47;4.30;;;;;;;8.45;61.40;96241.91;5039778;28;20028;-92
2021/05/10 01:20:08;;;;;;;6.85;4.20;;;;;;;9.01;61.89;96295.78;5039920;28;20021;-92
2021/05/10 01:23:03;;;;;;;7.60;4.43;;;;;;;9.07;62.46;96298.66;5057490;28;20029;-92
2021/05/10 01:25:31;;;;;;;8.18;4.90;;;;;;;8.97;62.97;96294.41;5019260;28;20029;-92
2021/05/10 01:27:58;;;;;;;7.68;5.38;;;;;;;9.10;62.57;96286.91;5039893;28;20016;-93
2021/05/10 01:30:25;;;;;;;6.93;5.03;;;;;;;8.30;62.24;96237.00;5039771;28;20032;-92
2021/05/10 01:32:52;;;;;;;8.02;4.55;;;;;;;8.28;63.32;96211.59;5039209;28;20028;-92
2021/05/10 01:35:29;;;;;;;8.50;4.78;;;;;;;8.47;63.82;96266.56;5039802;28;20175;-93
2021/05/10 01:37:55;;;;;;;21.17;12.05;;;;;;;8.81;63.14;96298.88;5038472;28;20033;-92
2021/05/10 01:40:21;;;;;;;24.38;13.57;;;;;;;8.63;63.17;96318.53;5039548;28;20020;-93
2021/05/10 01:42:47;;;;;;;11.25;7.65;;;;;;;8.00;64.85;96241.22;5039576;28;20093;-93
2021/05/10 01:45:12;;;;;;;9.32;5.70;;;;;;;7.96;65.14;96220.91;5039665;28;20029;-92
2021/05/10 01:47:38;;;;;;;10.50;5.70;;;;;;;8.34;65.39;96313.41;5057021;28;20095;-92
2021/05/10 01:50:11;;;;;;;10.35;5.82;;;;;;;7.95;66.22;96247.22;5039529;28;20029;-92
2021/05/10 01:52:36;;;;;;;9.63;5.70;;;;;;;7.47;66.79;96199.91;5039545;28;20391;-93
2021/05/10 01:55:03;;;;;;;11.45;6.15;;;;;;;7.78;66.66;96235.84;5039442;28;20021;-92
2021/05/10 01:57:28;;;;;;;7.97;5.88;;;;;;;7.74;65.62;96234.47;5039181;28;20053;-92
2021/05/10 01:59:54;;;;;;;9.48;5.90;;;;;;;7.68;66.36;96201.09;5039408;28;20087;-92
2021/05/10 02:02:19;;;;;;;11.00;5.65;;;;;;;7.75;66.73;96255.66;5039399;28;20064;-93
2021/05/10 02:05:16;;;;;;;7.72;6.15;;;;;;;8.14;66.34;96302.16;5039161;28;20128;-93
2021/05/10 02:07:46;;;;;;;11.27;5.72;;;;;;;8.18;66.06;96297.38;5039356;28;20045;-92
2021/05/10 02:10:24;;;;;;;9.37;6.00;;;;;;;8.03;66.01;96293.69;5039314;28;20104;-92
2021/05/10 02:12:56;;;;;;;10.32;6.00;;;;;;;7.67;66.37;96242.81;5039477;28;20017;-92
2021/05/10 02:15:23;;;;;;;7.53;5.72;;;;;;;7.60;68.34;96219.50;5039288;28;20037;-92
2021/05/10 02:17:48;;;;;;;10.00;6.05;;;;;;;7.46;66.53;96222.72;5056760;28;20115;-92
2021/05/10 02:20:15;;;;;;;10.27;6.03;;;;;;;7.72;67.68;96283.56;5039188;28;20033;-92
2021/05/10 02:22:40;;;;;;;10.90;6.63;;;;;;;7.28;68.12;96196.31;5039313;28;20112;-92
2021/05/10 02:25:06;;;;;;;11.63;7.40;;;;;;;7.22;68.83;96192.66;5038923;28;20120;-93
2021/05/10 02:27:33;;;;;;;9.65;7.55;;;;;;;7.35;69.21;96236.63;5039183;28;20021;-92
2021/05/10 02:29:58;;;;;;;9.75;7.40;;;;;;;6.89;69.08;96141.72;5039233;28;20025;-91
2021/05/10 02:32:23;;;;;;;10.15;6.88;;;;;;;7.32;68.07;96235.53;5039290;28;20048;-92
2021/05/10 02:34:49;;;;;;;10.77;6.65;;;;;;;7.05;69.90;96181.28;5039124;28;20021;-91
2021/05/10 02:37:16;;;;;;;13.13;7.13;;;;;;;7.08;69.12;96224.38;5039231;28;20115;-91
2021/05/10 02:39:42;;;;;;;11.07;7.70;;;;;;;7.42;67.98;96249.13;5039118;28;20033;-92
2021/05/10 02:42:07;;;;;;;13.90;8.75;;;;;;;7.07;68.91;96216.72;5039105;28;20115;-92
2021/05/10 02:44:32;;;;;;;16.67;9.85;;;;;;;7.32;68.15;96237.47;5039187;28;20163;-92
2021/05/10 02:46:58;;;;;;;16.00;8.98;;;;;;;7.07;68.21;96251.81;5042874;28;20017;-92
2021/05/10 02:49:23;;;;;;;12.75;8.30;;;;;;;6.99;69.14;96237.81;5042804;28;20028;-91
2021/05/10 02:51:49;;;;;;;12.85;8.55;;;;;;;6.58;69.12;96206.34;5042779;28;20020;-92
2021/05/10 02:54:14;;;;;;;13.93;9.35;;;;;;;7.06;71.52;96242.97;5042683;28;20024;-92
2021/05/10 02:56:39;;;;;;;14.07;9.23;;;;;;;6.63;71.25;96240.13;5042313;28;20021;-92
2021/05/10 02:59:05;;;;;;;13.80;8.32;;;;;;;6.90;69.77;96236.97;5042644;28;20059;-92
2021/05/10 03:01:30;;;;;;;12.98;8.52;;;;;;;6.51;70.43;96204.66;5042487;28;20052;-92
2021/05/10 03:03:56;;;;;;;14.05;8.02;;;;;;;6.73;70.84;96233.66;5042413;28;20424;-92
2021/05/10 03:06:21;;;;;;;11.45;7.60;;;;;;;6.69;70.84;96222.22;5042462;28;20071;-91
2021/05/10 03:08:46;;;;;;;11.23;8.02;;;;;;;6.78;70.57;96236.56;5059036;28;20024;-91
2021/05/10 03:11:12;;;;;;;12.55;7.15;;;;;;;6.65;71.38;96243.91;5042302;28;20362;-92
2021/05/10 03:13:37;;;;;;;12.27;7.03;;;;;;;7.28;70.66;96278.13;5042288;28;20374;-91
2021/05/10 03:16:03;;;;;;;13.13;6.90;;;;;;;6.86;71.48;96257.91;5042355;28;20029;-92
2021/05/10 03:18:28;;;;;;;10.68;6.82;;;;;;;7.02;70.30;96247.72;5042249;28;20029;-91
2021/05/10 03:20:54;;;;;;;8.73;5.90;;;;;;;7.02;68.71;96230.75;5042262;28;20158;-92
2021/05/10 03:23:19;;;;;;;11.38;6.43;;;;;;;7.14;68.31;96227.28;5042241;28;20020;-92
2021/05/10 03:25:44;;;;;;;10.30;6.82;;;;;;;7.08;68.15;96234.41;5042077;28;20091;-92
2021/05/10 03:28:10;;;;;;;10.60;7.18;;;;;;;7.13;68.29;96266.28;5042108;28;20031;-92
2021/05/10 03:30:35;;;;;;;9.43;5.90;;;;;;;7.20;67.08;96252.53;5042154;28;20040;-91
2021/05/10 03:33:01;;;;;;;7.68;5.50;;;;;;;7.13;66.84;96241.97;5041984;28;20021;-92
2021/05/10 03:35:26;;;;;;;10.95;4.95;;;;;;;6.97;68.17;96226.66;5041877;28;20324;-92
2021/05/10 03:37:52;;;;;;;9.02;5.63;;;;;;;7.30;69.54;96256.09;5041793;28;20428;-92
2021/05/10 03:40:19;;;;;;;12.65;6.00;;;;;;;7.05;68.01;96235.31;5042856;28;20040;-92
2021/05/10 03:42:46;;;;;;;12.60;5.97;;;;;;;6.96;68.94;96257.56;5042147;28;20039;-93
2021/05/10 03:45:12;;;;;;;10.57;5.30;;;;;;;7.58;69.52;96303.75;5041838;28;20028;-93
2021/05/10 03:47:40;;;;;;;8.88;5.53;;;;;;;7.55;70.16;96309.25;5043704;28;20044;-93
2021/05/10 03:50:20;;;;;;;10.65;6.07;;;;;;;7.32;69.92;96313.13;5041618;28;20025;-92
2021/05/10 03:52:47;;;;;;;7.32;5.38;;;;;;;7.21;70.12;96256.75;5041645;28;20066;-92
2021/05/10 03:55:15;;;;;;;8.30;5.38;;;;;;;6.82;69.42;96215.59;5041512;28;20029;-92
2021/05/10 03:57:41;;;;;;;9.32;5.60;;;;;;;7.53;70.14;96306.25;5041057;28;20052;-93
2021/05/10 04:00:09;;;;;;;10.55;5.90;;;;;;;7.29;67.84;96266.09;5041564;28;20426;-92
2021/05/10 04:02:35;;;;;;;8.65;5.57;;;;;;;7.00;68.41;96219.66;5041606;28;20024;-92
2021/05/10 04:15:42;;;;;;;10.50;5.50;;;;;;;7.59;69.04;96297.13;5059017;28;20448;-92
2021/05/10 04:18:08;;;;;;;10.73;5.53;;;;;;;7.13;69.53;96244.66;5040885;28;20045;-92
2021/05/10 04:20:33;;;;;;;7.25;4.85;;;;;;;7.15;67.99;96250.41;5041038;28;20028;-92
2021/05/10 04:22:59;;;;;;;7.22;4.70;;;;;;;7.22;68.01;96236.66;5050414;28;20068;-92
2021/05/10 04:25:25;;;;;;;5.18;4.03;;;;;;;7.15;67.91;96223.38;5024650;28;20049;-92
2021/05/10 04:27:51;;;;;;;9.52;4.88;;;;;;;7.51;65.53;96273.50;5057237;28;20021;-92
2021/05/10 04:30:18;;;;;;;6.90;4.38;;;;;;;7.23;66.31;96218.50;5041230;28;20035;-92
2021/05/10 04:32:44;;;;;;;8.93;4.38;;;;;;;7.52;65.77;96250.69;5057604;28;20028;-92
2021/05/10 04:35:10;;;;;;;8.55;4.30;;;;;;;7.75;66.20;96268.41;5041176;28;20475;-92
2021/05/10 04:37:35;;;;;;;9.32;4.43;;;;;;;7.64;66.02;96235.59;5040709;28;20033;-91
2021/05/10 04:40:01;;;;;;;10.43;4.43;;;;;;;8.02;65.18;96275.94;5040601;28;20071;-92
2021/05/10 04:42:27;;;;;;;6.18;4.10;;;;;;;8.07;63.12;96278.06;5040841;28;20056;-92
2021/05/10 04:44:52;;;;;;;5.20;3.60;;;;;;;7.96;62.94;96237.16;5042669;28;20021;-91
2021/05/10 04:47:17;;;;;;;6.30;3.17;;;;;;;8.34;62.39;96258.53;5040702;28;20121;-91
2021/05/10 04:49:43;;;;;;;7.03;3.38;;;;;;;8.55;61.34;96276.69;5044944;28;20032;-94
2021/05/10 04:58:52;;;;;;;5.00;2.35;;;;;;;9.32;59.67;96322.00;5061255;28;20090;-93
2021/05/10 05:01:17;;;;;;;6.03;2.50;;;;;;;9.08;60.14;96273.06;5043581;28;20111;-93
2021/05/10 05:03:43;;;;;;;4.95;2.55;;;;;;;9.34;59.03;96301.41;5042404;28;20116;-93
2021/05/10 05:06:08;;;;;;;6.97;3.28;;;;;;;9.26;59.62;96273.06;5040563;28;20424;-93
2021/05/10 05:08:34;;;;;;;5.95;3.30;;;;;;;9.14;58.36;96225.94;5040573;28;20025;-94
2021/05/10 05:10:59;;;;;;;7.55;2.97;;;;;;;9.38;58.65;96263.31;5041235;28;20031;-93
2021/05/10 05:13:26;;;;;;;5.80;3.17;;;;;;;9.32;58.54;96243.41;5044940;28;20124;-93
2021/05/10 05:15:52;;;;;;;4.97;2.67;;;;;;;9.95;57.96;96320.53;5043744;28;20021;-94
2021/05/10 05:18:17;;;;;;;7.68;3.42;;;;;;;10.00;58.29;96308.31;5042373;28;20032;-94
2021/05/10 05:20:43;;;;;;;6.35;3.50;;;;;;;9.45;58.45;96214.22;5042808;28;20059;-94
2021/05/10 05:23:26;;;;;;;6.40;3.28;;;;;;;10.19;57.87;96318.69;5043103;28;20021;-94
2021/05/10 05:25:58;;;;;;;3.80;2.90;;;;;;;10.40;54.87;96311.56;5042072;28;20562;-93
2021/05/10 05:28:24;;;;;;;7.43;2.65;;;;;;;10.06;53.56;96236.69;5043093;28;20432;-93
2021/05/10 05:30:50;;;;;;;5.03;2.80;;;;;;;10.60;53.88;96291.28;5043452;28;20025;-93
2021/05/10 05:33:16;;;;;;;6.43;3.10;;;;;;;10.47;56.01;96259.66;5041665;28;20031;-94
2021/05/10 05:35:42;;;;;;;5.07;3.40;;;;;;;10.51;54.90;96256.78;5044864;28;20029;-93
2021/05/10 05:38:09;;;;;;;6.38;2.78;;;;;;;10.69;53.88;96256.69;5026396;28;20118;-94
2021/05/10 05:40:35;;;;;;;2.75;1.80;;;;;;;11.05;50.09;96267.81;5044268;28;20025;-94
2021/05/10 05:43:00;;;;;;;5.10;2.25;;;;;;;10.91;52.45;96223.06;5045645;28;20409;-93
2021/05/10 05:45:26;;;;;;;8.95;2.63;;;;;;;11.06;50.71;96218.44;5043198;28;20040;-94
2021/05/10 05:47:52;;;;;;;6.45;2.80;;;;;;;11.00;50.93;96214.84;5040333;28;20107;-96
2021/05/10 05:50:17;;;;;;;2.85;2.10;;;;;;;11.13;50.36;96217.31;5040254;28;20029;-94
2021/05/10 05:52:44;;;;;;;2.33;2.00;;;;;;;11.48;50.38;96244.72;5043432;28;20025;-95
2021/05/10 05:55:10;;;;;;;3.60;1.95;;;;;;;11.43;48.75;96220.88;5044723;28;20033;-95
2021/05/10 05:57:36;;;;;;;3.85;1.73;;;;;;;11.70;47.70;96222.59;5044201;28;20049;-95
2021/05/10 06:00:02;;;;;;;3.85;1.67;;;;;;;11.78;47.71;96219.06;5044148;28;20040;-95
2021/05/10 06:02:29;;;;;;;7.15;1.75;;;;;;;12.05;46.50;96245.28;5041556;28;20052;-95
2021/05/10 06:04:55;;;;;;;3.63;1.73;;;;;;;12.09;47.95;96238.88;5043585;28;20021;-95
2021/05/10 06:07:20;;;;;;;3.08;1.90;;;;;;;12.47;47.32;96282.34;5049879;28;20021;-94
2021/05/10 06:09:46;;;;;;;3.92;2.00;;;;;;;12.19;48.31;96230.13;5044796;28;20025;-95
2021/05/10 06:12:12;;;;;;;3.72;2.30;;;;;;;12.28;47.29;96213.69;5064368;28;20021;-94
2021/05/10 06:14:37;;;;;;;5.72;2.20;;;;;;;12.74;46.96;96273.06;5046690;28;20073;-96
2021/05/10 06:17:03;;;;;;;4.00;2.25;;;;;;;12.99;46.14;96271.66;5043804;28;20025;-96
2021/05/10 06:19:29;;;;;;;5.28;2.03;;;;;;;12.85;45.90;96237.06;5045909;28;20032;-95
2021/05/10 06:25:16;;;;;;;6.05;1.70;;;;;;;13.49;43.08;96274.31;5065541;28;20091;-96
2021/05/10 06:27:42;;;;;;;5.90;1.75;;;;;;;13.40;43.84;96238.25;5047115;28;20375;-95
2021/05/10 06:30:09;;;;;;;4.45;2.00;;;;;;;13.80;42.22;96278.38;5063310;28;20067;-96
2021/05/10 06:32:36;;;;;;;3.40;1.73;;;;;;;13.89;41.08;96270.75;5043977;28;20087;-95
2021/05/10 06:35:02;;;;;;;6.15;1.52;;;;;;;13.90;41.53;96255.13;5060782;28;20033;-95
2021/05/10 06:37:30;;;;;;;3.70;1.23;;;;;;;13.85;39.16;96231.28;5044724;28;20025;-94
2021/05/10 06:39:57;;;;;;;2.47;1.20;;;;;;;14.22;39.42;96271.56;5061794;28;20024;-95
2021/05/10 06:42:23;;;;;;;1.42;1.08;;;;;;;14.08;38.25;96226.78;5048022;28;20025;-95
2021/05/10 06:44:49;;;;;;;2.65;1.02;;;;;;;14.26;39.47;96244.78;5050502;28;20025;-95
2021/05/10 06:47:14;;;;;;;6.05;1.50;;;;;;;14.15;38.32;96201.75;5052341;28;20443;-95
2021/05/10 06:49:39;;;;;;;2.40;1.15;;;;;;;14.37;37.83;96206.63;5045964;28;20115;-95
2021/05/10 06:55:27;;;;;;;2.47;1.23;;;;;;;14.60;37.48;96213.03;5062630;28;20036;-95
2021/05/10 06:57:52;;;;;;;2.88;1.20;;;;;;;14.72;36.83;96219.31;5045523;28;20429;-95
2021/05/10 07:00:18;;;;;;;1.85;1.20;;;;;;;14.78;37.97;96212.63;5044353;28;20427;-95
2021/05/10 07:02:44;;;;;;;4.78;1.27;;;;;;;14.81;37.59;96208.19;5045601;28;20025;-94
2021/05/10 07:05:10;;;;;;;5.43;2.58;;;;;;;15.03;37.04;96235.63;5045961;28;20028;-95
2021/05/10 07:07:35;;;;;;;4.20;1.20;;;;;;;14.77;36.23;96178.34;5044919;28;20037;-94
2021/05/10 07:10:01;;;;;;;2.10;1.50;;;;;;;14.79;37.36;96178.59;5043194;28;20483;-94
2021/05/10 07:12:28;;;;;;;1.27;1.10;;;;;;;14.89;37.24;96184.59;5042638;28;20029;-94
2021/05/10 07:14:53;;;;;;;9.02;1.20;;;;;;;15.25;35.94;96202.16;5043079;28;20016;-94
2021/05/10 07:17:19;;;;;;;1.88;1.10;;;;;;;15.20;36.62;96184.47;5042790;28;20029;-94
2021/05/10 07:19:44;;;;;;;1.30;1.20;;;;;;;15.42;37.29;96207.69;5042726;28;20024;-94
2021/05/10 07:22:10;;;;;;;2.80;1.20;;;;;;;15.31;36.23;96166.63;5042667;28;20029;-94
2021/05/10 07:24:35;;;;;;;3.95;1.30;;;;;;;15.25;36.74;96163.88;5042706;28;20043;-95
2021/05/10 07:27:01;;;;;;;1.85;1.38;;;;;;;15.46;36.87;96169.88;5043245;28;20021;-93
2021/05/10 07:29:27;;;;;;;3.33;1.20;;;;;;;16.04;35.20;96235.22;5043199;28;20028;-95
2021/05/10 07:35:14;;;;;;;4.32;1.30;;;;;;;15.95;34.75;96206.81;5060021;28;20083;-95
2021/05/10 07:37:39;;;;;;;2.05;0.95;;;;;;;15.93;36.61;96194.88;5041821;28;20032;-95
2021/05/10 07:40:06;;;;;;;1.92;1.05;;;;;;;16.30;34.71;96224.00;5042107;28;20025;-95
2021/05/10 07:42:32;;;;;;;3.30;1.75;;;;;;;16.26;36.40;96193.38;5042238;28;20036;-94
2021/05/10 07:44:59;;;;;;;5.05;1.40;;;;;;;16.08;35.47;96176.19;5038820;28;20026;-94
2021/05/10 07:47:25;;;;;;;2.42;1.20;;;;;;;16.31;34.77;96190.63;5039311;28;20365;-94
2021/05/10 07:49:50;;;;;;;6.88;1.40;;;;;;;16.31;34.52;96201.59;5039325;28;20022;-94
2021/05/10 07:52:16;;;;;;;2.50;1.17;;;;;;;16.26;35.25;96169.47;5039072;28;20036;-95
2021/05/10 07:54:41;;;;;;;4.85;1.08;;;;;;;16.53;34.13;96198.09;5040204;28;20037;-95
2021/05/10 07:57:07;;;;;;;4.88;1.23;;;;;;;16.75;34.88;96184.34;5041955;28;20033;-94
2021/05/10 07:59:34;;;;;;;5.53;1.35;;;;;;;16.77;35.16;96183.84;5042498;28;20119;-95
2021/05/10 08:02:00;;;;;;;2.45;1.17;;;;;;;16.69;34.53;96177.38;5042466;28;20037;-96
2021/05/10 08:04:26;;;;;;;5.00;1.40;;;;;;;16.78;33.53;96171.66;5042498;28;20040;-95
2021/05/10 08:06:52;;;;;;;4.95;1.33;;;;;;;16.91;35.47;96185.56;5058274;28;20324;-94
2021/05/10 08:09:18;;;;;;;8.07;1.50;;;;;;;16.87;34.93;96174.09;5041532;28;20092;-94
2021/05/10 08:11:43;;;;;;;4.80;1.38;;;;;;;17.08;35.26;96190.97;5041454;28;20032;-95
2021/05/10 08:14:09;;;;;;;3.13;1.40;;;;;;;16.95;32.79;96149.66;5057908;28;20032;-95
2021/05/10 08:16:35;;;;;;;3.28;1.02;;;;;;;17.40;34.00;96205.06;5041254;28;20056;-95
2021/05/10 08:19:00;;;;;;;5.60;1.40;;;;;;;17.18;33.05;96155.78;5041658;28;20117;-95
2021/05/10 08:24:48;;;;;;;2.60;1.17;;;;;;;17.41;34.65;96151.66;5039671;28;20044;-95
2021/05/10 08:27:13;;;;;;;4.22;1.35;;;;;;;17.35;35.13;96139.22;5021651;28;20022;-94
2021/05/10 08:29:39;;;;;;;4.35;1.38;;;;;;;17.77;32.53;96192.91;5037873;28;20071;-95
2021/05/10 08:32:04;;;;;;;7.00;1.38;;;;;;;17.90;34.41;96197.81;5041475;28;20025;-95
2021/05/10 08:34:30;;;;;;;5.05;1.50;;;;;;;17.78;34.25;96166.91;5041725;28;20527;-95
2021/05/10 08:36:56;;;;;;;4.68;1.10;;;;;;;17.66;32.68;96135.28;5041530;28;20033;-94
2021/05/10 08:39:22;;;;;;;2.70;1.05;;;;;;;17.83;33.42;96148.91;5041090;28;20325;-96
2021/05/10 08:41:47;;;;;;;3.17;1.40;;;;;;;18.15;34.08;96198.63;5040814;28;20033;-94
2021/05/10 08:44:13;;;;;;;3.97;1.90;;;;;;;17.72;33.88;96111.28;5040248;28;20035;-95
2021/05/10 08:46:41;;;;;;;4.10;1.35;;;;;;;18.30;33.48;96175.00;5040986;28;20021;-95
2021/05/10 08:49:07;;;;;;;3.97;1.40;;;;;;;18.42;32.84;96183.16;5042859;28;20024;-95
2021/05/10 08:51:34;;;;;;;4.70;1.33;;;;;;;18.50;33.22;96192.34;5042395;28;20035;-95
2021/05/10 08:54:00;;;;;;;2.58;1.10;;;;;;;17.99;33.88;96113.06;5041215;28;20056;-95
2021/05/10 08:56:27;;;;;;;4.43;1.15;;;;;;;18.61;32.47;96177.72;5042082;28;20021;-95
2021/05/10 08:58:52;;;;;;;3.58;1.10;;;;;;;18.44;33.00;96144.91;5042127;28;20056;-96
2021/05/10 09:01:21;;;;;;;1.42;1.00;;;;;;;18.45;33.11;96124.41;5041435;28;20025;-94
2021/05/10 09:03:50;;;;;;;6.18;1.20;;;;;;;18.66;30.99;96150.19;5041102;28;20029;-95
2021/05/10 09:06:27;;;;;;;1.88;1.13;;;;;;;18.77;31.11;96143.84;5058864;28;20086;-95
2021/05/10 09:08:53;;;;;;;1.30;1.10;;;;;;;18.80;31.69;96123.53;5042101;28;20098;-94
2021/05/10 09:11:20;;;;;;;2.67;1.20;;;;;;;18.98;31.80;96127.59;5042549;28;20052;-95
2021/05/10 09:13:57;;;;;;;2.55;1.30;;;;;;;19.33;31.15;96162.41;5042440;28;20040;-95
2021/05/10 09:16:23;;;;;;;3.72;1.25;;;;;;;19.18;31.74;96126.34;5041749;28;20029;-94
2021/05/10 09:18:55;;;;;;;2.17;1.40;;;;;;;19.17;32.10;96117.31;5057227;28;20032;-95
2021/05/10 09:21:30;;;;;;;3.08;1.52;;;;;;;19.59;30.56;96161.84;5040422;28;20040;-95
2021/05/10 09:23:58;;;;;;;2.95;1.70;;;;;;;19.70;31.41;96153.41;5040902;28;20036;-95
2021/05/10 09:26:32;;;;;;;2.28;1.00;;;;;;;19.44;30.71;96114.69;5041751;28;20486;-95
2021/05/10 09:28:58;;;;;;;2.42;1.30;;;;;;;19.79;31.04;96147.50;5057445;28;20071;-94
2021/05/10 09:34:46;;;;;;;2.47;1.20;;;;;;;19.80;28.97;96118.69;5051271;28;20052;-95
2021/05/10 09:37:12;;;;;;;4.03;1.38;;;;;;;19.59;29.41;96070.94;5058409;28;20017;-95
2021/05/10 09:39:38;;;;;;;1.30;1.02;;;;;;;19.82;31.48;96080.34;5042461;28;20017;-94
2021/05/10 09:42:07;;;;;;;1.52;1.08;;;;;;;19.85;29.03;96076.53;5058245;28;20025;-94
2021/05/10 09:44:40;;;;;;;1.63;0.98;;;;;;;20.45;30.35;96137.91;5041859;28;20372;-95
2021/05/10 09:47:06;;;;;;;1.63;1.00;;;;;;;20.56;29.85;96133.00;5043813;28;20027;-95
2021/05/10 09:49:45;;;;;;;3.00;1.15;;;;;;;20.71;29.02;96137.22;5042250;28;20024;-95
2021/05/10 09:52:20;;;;;;;2.88;1.10;;;;;;;20.53;29.96;96078.13;5042708;28;20036;-95
2021/05/10 09:55:00;;;;;;;1.90;0.82;;;;;;;21.05;29.04;96134.56;5021733;28;20433;-95
2021/05/10 09:57:26;;;;;;;4.03;0.90;;;;;;;20.77;27.20;96064.09;5020708;28;20049;-95
2021/05/10 10:00:17;;;;;;;2.55;1.00;;;;;;;21.35;29.19;96131.44;5038155;28;20108;-95
2021/05/10 10:02:43;;;;;;;2.33;1.40;;;;;;;21.26;28.38;96129.84;5040014;28;20024;-93
2021/05/10 10:05:09;;;;;;;2.83;1.00;;;;;;;20.91;27.99;96060.03;5047668;28;20024;-93
2021/05/10 10:07:39;;;;;;;2.33;1.00;;;;;;;21.57;28.76;96135.72;5041365;28;20116;-93
2021/05/10 10:10:05;;;;;;;4.07;1.10;;;;;;;21.24;27.90;96065.38;5045091;28;20033;-95
2021/05/10 10:12:31;;;;;;;2.47;1.00;;;;;;;21.36;27.98;96089.50;5039809;28;20032;-95
2021/05/10 10:14:57;;;;;;;3.05;1.10;;;;;;;21.71;29.33;96092.94;5039766;28;20023;-95
2021/05/10 10:17:24;;;;;;;2.20;0.80;;;;;;;21.81;25.95;96087.69;5039412;28;20115;-95
2021/05/10 10:19:50;;;;;;;1.17;0.90;;;;;;;21.81;27.48;96063.56;5039266;28;20025;-94
2021/05/10 10:22:17;;;;;;;2.58;1.00;;;;;;;22.10;29.03;96080.94;5039190;28;20036;-94
2021/05/10 10:24:45;;;;;;;2.65;0.93;;;;;;;21.92;26.80;96054.25;5040460;28;20028;-95
2021/05/10 10:27:12;;;;;;;3.42;0.88;;;;;;;22.10;25.59;96056.06;5039294;28;20025;-95
2021/05/10 10:29:41;;;;;;;2.17;0.90;;;;;;;22.42;25.51;96086.16;5039199;28;20025;-94
2021/05/10 10:32:08;;;;;;;2.38;0.90;;;;;;;22.80;27.38;96102.25;5039261;28;20020;-95
2021/05/10 10:34:41;;;;;;;1.55;0.98;;;;;;;22.54;23.93;96103.22;5041135;28;20028;-93
2021/05/10 10:37:08;;;;;;;1.13;0.60;;;;;;;23.03;26.05;96107.94;5047997;28;20052;-94
2021/05/10 10:39:34;;;;;;;1.83;0.70;;;;;;;23.19;23.54;96103.19;5048670;28;20055;-94
2021/05/10 10:42:06;;;;;;;2.30;0.80;;;;;;;23.36;25.54;96100.66;5038586;28;20033;-93
2021/05/10 10:44:37;;;;;;;4.55;0.98;;;;;;;23.58;23.93;96102.00;5037864;28;20105;-94
2021/05/10 10:47:03;;;;;;;2.85;0.80;;;;;;;23.75;23.60;96104.28;5042274;28;20115;-95
2021/05/10 10:49:37;;;;;;;3.85;0.82;;;;;;;23.38;22.89;96044.69;5042246;28;20033;-95
2021/05/10 10:52:15;;;;;;;1.70;0.90;;;;;;;23.55;22.67;96030.34;5045367;28;20028;-95
2021/05/10 10:54:40;;;;;;;1.33;0.70;;;;;;;24.16;24.26;96094.13;5045791;28;20021;-96
2021/05/10 10:57:06;;;;;;;1.73;0.57;;;;;;;24.04;22.71;96061.22;5043982;28;20099;-95
2021/05/10 10:59:39;;;;;;;1.23;0.75;;;;;;;24.43;22.97;96086.91;5045476;28;20413;-94
2021/05/10 11:02:23;;;;;;;1.38;0.68;;;;;;;24.01;21.60;96031.81;5028442;28;20028;-96
2021/05/10 11:05:13;;;;;;;2.10;0.80;;;;;;;24.64;23.56;96074.84;5048371;28;20009;-96
2021/05/10 11:08:08;;;;;;;0.82;0.73;;;;;;;24.97;22.20;96076.41;5056929;28;20021;-96
2021/05/10 11:10:51;;;;;;;1.27;0.73;;;;;;;24.60;20.40;96008.63;5076311;28;20071;-96
2021/05/10 11:13:29;;;;;;;3.63;0.93;;;;;;;25.15;22.71;96076.56;5045836;28;20028;-94
2021/05/10 11:15:55;;;;;;;1.35;0.82;;;;;;;25.58;22.63;96090.03;5045910;28;20440;-95
2021/05/10 11:18:51;;;;;;;0.93;0.75;;;;;;;25.57;20.97;96077.44;5045995;28;20159;-94
2021/05/10 11:21:23;;;;;;;0.60;0.52;;;;;;;25.55;20.24;96073.75;5047428;28;20053;-96
2021/05/10 11:24:05;;;;;;;2.30;0.70;;;;;;;25.50;19.74;96047.66;5049752;28;20039;-96
2021/05/10 11:26:51;;;;;;;10.55;0.90;;;;;;;25.63;21.20;96052.22;5052389;28;20025;-96
2021/05/10 11:29:29;;;;;;;2.92;0.90;;;;;;;26.27;21.43;96078.44;5054177;28;20025;-96
2021/05/10 11:32:11;;;;;;;1.42;0.63;;;;;;;25.99;21.98;96076.78;5055303;28;20033;-96
2021/05/10 11:34:40;;;;;;;1.10;0.75;;;;;;;25.69;20.87;96038.09;5058381;28;20032;-96
2021/05/10 11:37:08;;;;;;;4.90;0.70;;;;;;;26.27;21.88;96061.00;5056604;28;20107;-96
2021/05/10 11:39:39;;;;;;;1.02;0.60;;;;;;;26.35;21.15;96048.47;5052235;28;20029;-96
2021/05/10 11:42:07;;;;;;;3.17;1.45;;;;;;;26.34;18.91;96049.78;5068199;28;20059;-96
2021/05/10 11:44:37;;;;;;;1.45;0.90;;;;;;;26.21;20.13;96025.06;5050964;28;20021;-96
2021/05/10 11:47:19;;;;;;;2.67;0.82;;;;;;;26.64;20.29;96051.56;5076644;28;20049;-96
2021/05/10 11:49:51;;;;;;;3.00;1.13;;;;;;;26.86;20.50;96055.38;5058244;28;20029;-96
2021/05/10 11:52:22;;;;;;;6.10;1.10;;;;;;;27.21;21.42;96043.47;5057338;28;20439;-96
2021/05/10 11:54:50;;;;;;;4.18;1.10;;;;;;;26.99;19.77;96001.38;5052018;28;20083;-96
2021/05/10 11:57:21;;;;;;;3.58;0.70;;;;;;;26.98;20.49;96022.19;5053122;28;20041;-96
2021/05/10 12:02:17;;;;;;;2.55;1.00;;;;;;;27.40;19.24;96035.97;5070536;28;20025;-96
2021/05/10 12:05:09;;;;;;;1.60;0.80;;;;;;;27.47;19.58;96020.44;5055587;28;20047;-96
2021/05/10 12:07:37;;;;;;;3.78;0.88;;;;;;;27.52;19.70;96005.50;5075768;28;20052;-96
2021/05/10 12:13:35;;;;;;;1.40;0.80;;;;;;;27.56;21.36;96033.69;5010515;28;20029;-96
2021/05/10 12:16:07;;;;;;;3.78;0.70;;;;;;;27.26;20.46;96006.25;4982864;28;20049;-96
2021/05/10 12:18:33;;;;;;;2.35;0.70;;;;;;;27.44;21.31;96034.81;4958433;29;20420;-96
2021/05/10 12:20:58;;;;;;;3.63;0.88;;;;;;;26.70;18.64;95992.84;4967623;29;20074;-96